Time;durP1;ratioP1;P1;durP2;ratioP2;P2;SDS_P1;SDS_P2;PMS_P1;PMS_P2;Temp;Humidity;BMP_temperature;BMP_pressure;BME280_temperature;BME280_humidity;BME280_pressure;Samples;Min_cycle;Max_cycle;Signal;HPM_P1;HPM_P2
2022/07/28 00:01:34;;;;;;;2.83;1.70;;;12.50;99.90;;;;;;5047132;28;20041;-61
2022/07/28 00:04:00;;;;;;;3.85;1.80;;;12.50;99.90;;;;;;5048217;28;20441;-61
2022/07/28 00:06:25;;;;;;;4.07;1.77;;;12.50;99.90;;;;;;5048428;28;20024;-61
2022/07/28 00:08:51;;;;;;;5.70;1.90;;;12.40;99.90;;;;;;5046191;28;20026;-61
2022/07/28 00:11:17;;;;;;;3.08;1.70;;;12.40;99.90;;;;;;5048899;28;20053;-61
2022/07/28 00:13:43;;;;;;;2.28;1.55;;;12.40;99.90;;;;;;5047750;28;20028;-62
2022/07/28 00:16:09;;;;;;;2.60;1.38;;;12.40;99.90;;;;;;5048282;28;20022;-61
2022/07/28 00:18:34;;;;;;;2.45;1.80;;;12.30;99.90;;;;;;5047106;28;20502;-61
2022/07/28 00:21:01;;;;;;;3.60;1.80;;;12.30;99.90;;;;;;5029935;28;20534;-61
2022/07/28 00:23:26;;;;;;;4.50;2.28;;;12.30;99.90;;;;;;5046616;28;20029;-60
2022/07/28 00:25:52;;;;;;;3.17;1.80;;;12.20;99.90;;;;;;5046498;28;20033;-61
2022/07/28 00:28:18;;;;;;;4.25;1.85;;;12.20;99.90;;;;;;5050998;28;20108;-61
2022/07/28 00:30:44;;;;;;;2.80;1.98;;;12.20;99.90;;;;;;5051905;28;20021;-61
2022/07/28 00:33:10;;;;;;;3.90;1.80;;;12.20;99.90;;;;;;5052689;28;20029;-61
2022/07/28 00:35:35;;;;;;;4.47;2.00;;;12.20;99.90;;;;;;5048518;28;20116;-61
2022/07/28 00:38:01;;;;;;;3.88;1.95;;;12.10;99.90;;;;;;5051624;28;20092;-61
2022/07/28 00:43:12;;;;;;;2.03;1.65;;;12.00;99.90;;;;;;5051480;28;20100;-60
2022/07/28 00:45:38;;;;;;;3.42;2.05;;;12.00;99.90;;;;;;5051513;28;20476;-61
2022/07/28 00:48:03;;;;;;;2.80;1.80;;;12.00;99.90;;;;;;5051421;28;20134;-61
2022/07/28 00:50:29;;;;;;;3.55;1.98;;;12.00;99.90;;;;;;5051416;28;20134;-61
2022/07/28 00:52:55;;;;;;;2.40;1.90;;;12.00;99.90;;;;;;5051002;28;20436;-62
2022/07/28 00:55:22;;;;;;;3.92;2.30;;;12.00;99.90;;;;;;5051334;28;20107;-61
2022/07/28 00:57:47;;;;;;;3.92;2.05;;;11.90;99.90;;;;;;5050631;28;20023;-61
2022/07/28 01:00:13;;;;;;;3.17;1.98;;;11.90;99.90;;;;;;5049871;28;20112;-60
2022/07/28 01:02:40;;;;;;;5.55;2.03;;;11.90;99.90;;;;;;5051454;28;20021;-60
2022/07/28 01:05:06;;;;;;;2.40;2.15;;;11.80;99.90;;;;;;5048512;28;20748;-60
2022/07/28 01:07:44;;;;;;;4.28;1.88;;;11.70;99.90;;;;;;5049436;28;20496;-60
2022/07/28 01:10:26;;;;;;;3.78;1.98;;;11.60;99.90;;;;;;5050518;28;20544;-60
2022/07/28 01:13:01;;;;;;;5.32;2.00;;;11.60;99.90;;;;;;5049893;28;20017;-60
2022/07/28 01:15:38;;;;;;;7.75;2.25;;;11.60;99.90;;;;;;5050788;28;20628;-60
2022/07/28 01:18:25;;;;;;;4.38;1.90;;;11.50;99.90;;;;;;5051193;28;20463;-60
2022/07/28 01:21:07;;;;;;;6.45;2.33;;;11.50;99.90;;;;;;5049606;28;20025;-60
2022/07/28 01:23:51;;;;;;;3.63;2.45;;;11.50;99.90;;;;;;5050576;28;20540;-60
2022/07/28 01:26:47;;;;;;;4.75;2.53;;;11.50;99.90;;;;;;5046520;28;20044;-60
2022/07/28 01:29:46;;;;;;;2.65;2.00;;;11.50;99.90;;;;;;5050039;28;20116;-60
2022/07/28 01:32:24;;;;;;;4.18;2.55;;;11.50;99.90;;;;;;5048358;28;20033;-60
2022/07/28 01:35:36;;;;;;;8.55;2.67;;;11.40;99.90;;;;;;5050906;28;20021;-60
2022/07/28 01:38:04;;;;;;;;;;;11.50;99.90;;;;;;4968150;28;20037;-60
2022/07/28 01:40:33;;;;;;;2.97;2.50;;;11.50;99.90;;;;;;4968764;28;20001;-59
2022/07/28 01:43:02;;;;;;;4.20;2.58;;;11.40;99.90;;;;;;5013819;28;20029;-60
2022/07/28 01:45:29;;;;;;;3.22;2.20;;;11.40;99.90;;;;;;5050768;28;20025;-59
2022/07/28 01:47:58;;;;;;;3.30;2.17;;;11.40;99.90;;;;;;5048636;28;20451;-60
2022/07/28 01:50:26;;;;;;;8.90;2.78;;;11.40;99.90;;;;;;5050561;28;20021;-60
2022/07/28 01:52:54;;;;;;;6.40;2.72;;;11.30;99.90;;;;;;5049069;28;20017;-59
2022/07/28 01:55:22;;;;;;;4.32;2.67;;;11.30;99.90;;;;;;5049592;28;20095;-59
2022/07/28 01:57:49;;;;;;;3.90;2.25;;;11.20;99.90;;;;;;5049327;28;20109;-60
2022/07/28 02:00:16;;;;;;;3.00;2.30;;;11.20;99.90;;;;;;5049940;28;20016;-60
2022/07/28 02:02:45;;;;;;;6.28;2.65;;;11.20;99.90;;;;;;5050099;28;20496;-60
2022/07/28 02:05:15;;;;;;;5.47;2.50;;;11.10;99.90;;;;;;5048977;28;20423;-59
2022/07/28 02:07:42;;;;;;;6.40;2.42;;;11.10;99.90;;;;;;5047614;28;20053;-60
2022/07/28 02:10:10;;;;;;;2.67;2.15;;;11.10;99.90;;;;;;5049156;28;20033;-60
2022/07/28 02:12:38;;;;;;;2.17;2.00;;;11.00;99.90;;;;;;5048555;28;20031;-60
2022/07/28 02:15:07;;;;;;;5.47;2.10;;;10.90;99.90;;;;;;5048732;28;20055;-60
2022/07/28 02:17:35;;;;;;;5.65;2.83;;;10.80;99.90;;;;;;5048852;28;20036;-60
2022/07/28 02:20:04;;;;;;;2.63;2.05;;;10.80;99.90;;;;;;5047996;28;20033;-59
2022/07/28 02:22:31;;;;;;;3.33;1.83;;;10.70;99.90;;;;;;5048782;28;20039;-60
2022/07/28 02:24:57;;;;;;;4.07;2.40;;;10.70;99.90;;;;;;5049476;28;20037;-60
2022/07/28 02:27:38;;;;;;;4.00;3.08;;;10.60;99.90;;;;;;5049646;28;20445;-60
2022/07/28 02:30:07;;;;;;;4.10;2.50;;;10.60;99.90;;;;;;5049504;28;20048;-60
2022/07/28 02:32:41;;;;;;;4.38;2.75;;;10.50;99.90;;;;;;5046545;28;20511;-62
2022/07/28 02:35:24;;;;;;;2.38;2.17;;;10.50;99.90;;;;;;5049072;28;20033;-62
2022/07/28 02:37:59;;;;;;;3.05;2.22;;;10.50;99.90;;;;;;5046581;28;20101;-62
2022/07/28 02:40:29;;;;;;;4.18;1.90;;;10.50;99.90;;;;;;5049428;28;20025;-62
2022/07/28 02:42:57;;;;;;;3.03;2.53;;;10.40;99.90;;;;;;5047898;28;20025;-63
2022/07/28 02:45:25;;;;;;;4.95;2.35;;;10.40;99.90;;;;;;5048070;28;20607;-63
2022/07/28 02:47:57;;;;;;;3.13;2.17;;;10.30;99.90;;;;;;5048205;28;20071;-62
2022/07/28 02:50:26;;;;;;;3.30;2.33;;;10.30;99.90;;;;;;5046771;28;20116;-62
2022/07/28 02:53:00;;;;;;;4.53;2.35;;;10.20;99.90;;;;;;5048501;28;20040;-62
2022/07/28 02:55:27;;;;;;;4.25;2.50;;;10.20;99.90;;;;;;5048021;28;20515;-62
2022/07/28 02:57:54;;;;;;;3.50;2.50;;;10.20;99.90;;;;;;5047248;28;20083;-63
2022/07/28 03:00:21;;;;;;;4.43;3.08;;;10.20;99.90;;;;;;5048891;28;20487;-62
2022/07/28 03:02:47;;;;;;;4.30;2.55;;;10.10;99.90;;;;;;5050665;28;20032;-62
2022/07/28 03:05:17;;;;;;;4.43;3.42;;;10.00;99.90;;;;;;5030764;28;20308;-62
2022/07/28 03:07:44;;;;;;;3.65;2.70;;;9.90;99.90;;;;;;5029109;28;20076;-62
2022/07/28 03:10:26;;;;;;;3.33;2.97;;;9.90;99.90;;;;;;5048777;28;20473;-62
2022/07/28 03:12:55;;;;;;;3.50;2.50;;;9.80;99.90;;;;;;5046513;28;20096;-63
2022/07/28 03:15:21;;;;;;;3.80;3.10;;;9.70;99.90;;;;;;5049512;28;20044;-62
2022/07/28 03:17:47;;;;;;;4.13;3.65;;;9.70;99.90;;;;;;5047765;28;20056;-62
2022/07/28 03:20:13;;;;;;;3.80;3.40;;;9.70;99.90;;;;;;5048008;28;20033;-62
2022/07/28 03:22:39;;;;;;;6.50;3.20;;;9.70;99.90;;;;;;5046765;28;20051;-62
2022/07/28 03:25:12;;;;;;;6.20;3.60;;;9.70;99.90;;;;;;5048361;28;20064;-62
2022/07/28 03:27:42;;;;;;;3.72;3.42;;;9.60;99.90;;;;;;5048375;28;20032;-62
2022/07/28 03:30:12;;;;;;;4.47;4.07;;;9.60;99.90;;;;;;5048163;28;20029;-62
2022/07/28 03:32:53;;;;;;;7.18;4.55;;;9.60;99.90;;;;;;5048326;28;20523;-62
2022/07/28 03:35:20;;;;;;;5.55;4.53;;;9.60;99.90;;;;;;5047898;28;20037;-61
2022/07/28 03:37:54;;;;;;;6.80;4.60;;;9.50;99.90;;;;;;5047990;28;20025;-62
2022/07/28 03:40:25;;;;;;;5.20;4.00;;;9.50;99.90;;;;;;5046080;28;20575;-62
2022/07/28 03:42:52;;;;;;;5.85;3.50;;;9.50;99.90;;;;;;5048422;28;20029;-62
2022/07/28 03:45:18;;;;;;;5.90;4.28;;;9.60;99.90;;;;;;5048102;28;20021;-62
2022/07/28 03:47:55;;;;;;;7.18;4.15;;;9.60;99.90;;;;;;5047527;28;20025;-62
2022/07/28 03:50:23;;;;;;;5.07;3.90;;;9.60;99.90;;;;;;5063735;28;20432;-62
2022/07/28 03:52:49;;;;;;;5.00;4.25;;;9.70;99.90;;;;;;5047300;28;20433;-62
2022/07/28 03:55:15;;;;;;;4.57;3.83;;;9.80;99.90;;;;;;5048006;28;20039;-62
2022/07/28 03:57:41;;;;;;;7.88;4.63;;;9.80;99.90;;;;;;5047424;28;20096;-59
2022/07/28 04:00:07;;;;;;;4.38;3.97;;;9.90;99.90;;;;;;5048394;28;20044;-60
2022/07/28 04:02:33;;;;;;;4.18;3.70;;;9.90;99.90;;;;;;5049667;28;20025;-60
2022/07/28 04:04:59;;;;;;;3.90;3.05;;;10.00;99.90;;;;;;5052567;28;20087;-60
2022/07/28 04:07:25;;;;;;;3.67;3.00;;;10.00;99.90;;;;;;5051055;28;20036;-60
2022/07/28 04:09:51;;;;;;;6.35;3.20;;;10.10;99.90;;;;;;5051589;28;20025;-59
2022/07/28 04:12:16;;;;;;;4.20;3.00;;;10.20;99.90;;;;;;5052363;28;20013;-59
2022/07/28 04:14:42;;;;;;;4.00;3.40;;;10.20;99.90;;;;;;5051588;28;20168;-60
2022/07/28 04:17:08;;;;;;;3.88;2.95;;;10.30;99.90;;;;;;5032384;28;20040;-58
2022/07/28 04:19:33;;;;;;;5.45;3.40;;;10.40;99.90;;;;;;5051546;28;20044;-59
2022/07/28 04:21:59;;;;;;;3.60;2.67;;;10.50;99.90;;;;;;5051666;28;20251;-60
2022/07/28 04:24:24;;;;;;;3.00;2.55;;;10.60;99.90;;;;;;5051501;28;20076;-58
2022/07/28 04:26:50;;;;;;;4.10;2.58;;;10.60;99.90;;;;;;5051407;28;20025;-58
2022/07/28 04:29:16;;;;;;;3.40;2.30;;;10.70;99.90;;;;;;5047854;28;20044;-57
2022/07/28 04:31:42;;;;;;;4.10;2.53;;;10.80;99.90;;;;;;5051545;28;20035;-59
2022/07/28 04:34:08;;;;;;;3.95;2.50;;;10.80;99.90;;;;;;5051145;28;20021;-57
2022/07/28 04:36:40;;;;;;;3.65;2.72;;;10.80;99.90;;;;;;5051646;28;20377;-62
2022/07/28 04:39:07;;;;;;;4.50;3.47;;;10.90;99.90;;;;;;5051617;28;20025;-59
2022/07/28 04:41:33;;;;;;;3.13;2.38;;;11.00;99.90;;;;;;5051368;28;20037;-61
2022/07/28 04:43:59;;;;;;;2.97;2.78;;;11.10;99.90;;;;;;5051683;28;20496;-58
2022/07/28 04:46:25;;;;;;;3.38;2.33;;;11.20;99.90;;;;;;5050758;28;20053;-61
2022/07/28 04:48:51;;;;;;;2.70;2.50;;;11.30;99.90;;;;;;5052072;28;20032;-61
2022/07/28 04:51:17;;;;;;;8.32;3.00;;;11.40;99.90;;;;;;5050422;28;20392;-61
2022/07/28 04:53:42;;;;;;;2.97;2.53;;;11.50;99.90;;;;;;5050942;28;20489;-61
2022/07/28 04:56:08;;;;;;;3.80;2.90;;;11.60;99.90;;;;;;5049066;28;20052;-62
2022/07/28 04:58:34;;;;;;;5.88;3.00;;;11.60;99.90;;;;;;5050062;28;20037;-63
2022/07/28 05:00:59;;;;;;;3.67;2.85;;;11.60;99.90;;;;;;5049558;28;20028;-60
2022/07/28 05:03:25;;;;;;;4.45;2.85;;;11.70;99.90;;;;;;5048943;28;20028;-61
2022/07/28 05:05:55;;;;;;;3.95;3.55;;;11.80;99.90;;;;;;5049222;28;20051;-63
2022/07/28 05:08:22;;;;;;;2.90;2.50;;;11.80;99.90;;;;;;5047538;28;20080;-64
2022/07/28 05:10:47;;;;;;;3.70;2.88;;;11.90;99.90;;;;;;5050598;28;20048;-59
2022/07/28 05:13:13;;;;;;;4.30;2.40;;;12.10;99.90;;;;;;5048926;28;20055;-60
2022/07/28 05:15:39;;;;;;;5.13;2.38;;;12.70;99.90;;;;;;5050236;28;20033;-59
2022/07/28 05:18:04;;;;;;;5.28;2.22;;;13.70;99.90;;;;;;5049132;28;20033;-60
2022/07/28 05:20:30;;;;;;;2.80;1.60;;;14.90;99.90;;;;;;5049587;28;20503;-59
2022/07/28 05:22:56;;;;;;;2.85;1.52;;;16.20;99.90;;;;;;5049372;28;20392;-60
2022/07/28 05:25:24;;;;;;;1.88;1.73;;;17.40;99.90;;;;;;5049383;28;20044;-59
2022/07/28 05:27:51;;;;;;;4.20;1.73;;;18.30;99.90;;;;;;5048852;28;20021;-60
2022/07/28 05:30:17;;;;;;;5.13;1.50;;;18.90;99.90;;;;;;5049270;28;20021;-59
2022/07/28 05:32:44;;;;;;;2.15;1.25;;;19.50;99.90;;;;;;5049387;28;20793;-59
2022/07/28 05:35:10;;;;;;;4.28;1.60;;;19.70;99.90;;;;;;5048943;28;20397;-60
2022/07/28 05:37:36;;;;;;;2.78;1.38;;;19.90;99.90;;;;;;5049038;28;20032;-60
2022/07/28 05:40:07;;;;;;;3.38;1.55;;;20.30;99.90;;;;;;5048823;28;20124;-61
2022/07/28 05:42:35;;;;;;;2.95;1.40;;;20.70;99.90;;;;;;5065140;28;20055;-57
2022/07/28 05:45:07;;;;;;;3.20;1.23;;;21.60;99.90;;;;;;5048556;28;20032;-57
2022/07/28 05:47:41;;;;;;;3.15;1.50;;;22.60;93.50;;;;;;5049275;28;20035;-58
2022/07/28 05:50:07;;;;;;;2.85;1.50;;;23.40;86.90;;;;;;5048961;28;20056;-59
2022/07/28 05:52:33;;;;;;;6.43;1.80;;;24.80;72.40;;;;;;5048731;28;20123;-58
2022/07/28 05:54:58;;;;;;;3.33;1.10;;;25.60;63.60;;;;;;4992745;28;1122622;-60
2022/07/28 05:57:24;;;;;;;2.95;1.40;;;26.00;63.30;;;;;;5049406;28;20032;-61
2022/07/28 05:59:50;;;;;;;1.58;1.30;;;26.50;60.40;;;;;;5050213;28;20028;-60
2022/07/28 06:02:16;;;;;;;4.50;1.38;;;27.30;57.20;;;;;;5049487;28;20063;-58
2022/07/28 06:04:41;;;;;;;2.58;1.40;;;27.40;55.20;;;;;;5049870;28;20141;-57
2022/07/28 06:07:07;;;;;;;3.13;1.10;;;27.50;54.40;;;;;;5048817;28;20044;-58
2022/07/28 06:09:33;;;;;;;3.47;0.95;;;27.80;53.70;;;;;;5048188;28;20024;-57
2022/07/28 06:11:58;;;;;;;3.40;1.20;;;28.10;52.20;;;;;;5049918;28;20112;-60
2022/07/28 06:14:24;;;;;;;2.28;1.10;;;28.60;52.10;;;;;;5046671;28;20399;-58
2022/07/28 06:16:49;;;;;;;3.47;1.10;;;29.00;50.60;;;;;;5049203;28;20480;-57
2022/07/28 06:19:18;;;;;;;1.67;0.90;;;29.30;49.50;;;;;;5047527;28;20032;-59
2022/07/28 06:21:44;;;;;;;3.13;0.90;;;29.90;49.00;;;;;;5048699;28;20033;-58
2022/07/28 06:24:10;;;;;;;3.60;1.17;;;30.40;47.30;;;;;;5049790;28;20040;-60
2022/07/28 06:26:36;;;;;;;1.25;0.85;;;31.20;46.40;;;;;;5047604;28;20119;-58
2022/07/28 06:29:03;;;;;;;2.35;0.82;;;31.40;45.10;;;;;;5049800;28;20040;-58
2022/07/28 06:31:28;;;;;;;1.42;0.85;;;31.80;43.70;;;;;;5047900;28;20063;-61
2022/07/28 06:33:54;;;;;;;1.55;0.85;;;32.00;42.90;;;;;;5049633;28;20435;-60
2022/07/28 06:36:20;;;;;;;3.47;0.93;;;32.00;42.80;;;;;;5049143;28;20029;-58
2022/07/28 06:38:45;;;;;;;2.75;1.10;;;32.00;42.30;;;;;;5049076;28;20052;-59
2022/07/28 06:41:11;;;;;;;4.63;0.90;;;32.30;42.10;;;;;;5049386;28;20040;-60
2022/07/28 06:43:37;;;;;;;1.38;0.80;;;32.20;41.80;;;;;;5048897;28;20141;-61
2022/07/28 06:46:03;;;;;;;2.17;0.88;;;32.90;41.80;;;;;;5049309;28;20039;-59
2022/07/28 06:48:28;;;;;;;3.30;0.80;;;32.90;40.80;;;;;;5049250;28;20337;-60
2022/07/28 06:50:57;;;;;;;1.10;0.60;;;33.30;41.40;;;;;;5049376;28;20128;-58
2022/07/28 06:53:22;;;;;;;1.40;0.70;;;33.20;38.60;;;;;;5049712;28;20536;-58
2022/07/28 06:55:48;;;;;;;2.40;0.60;;;33.10;37.90;;;;;;5046969;28;20123;-59
2022/07/28 06:58:14;;;;;;;1.42;0.70;;;33.10;39.10;;;;;;5048832;28;20037;-58
2022/07/28 07:00:39;;;;;;;2.65;0.70;;;33.30;38.30;;;;;;5049148;28;20587;-62
2022/07/28 07:03:05;;;;;;;4.40;0.68;;;33.90;38.60;;;;;;5049032;28;20115;-59
2022/07/28 07:05:31;;;;;;;1.67;0.70;;;34.00;36.70;;;;;;5048413;28;20044;-58
2022/07/28 07:07:56;;;;;;;0.98;0.77;;;33.10;37.30;;;;;;5047347;28;20055;-58
2022/07/28 07:10:22;;;;;;;3.30;0.93;;;33.00;37.40;;;;;;5049109;28;20108;-58
2022/07/28 07:12:48;;;;;;;2.45;0.65;;;33.50;37.90;;;;;;5048528;28;20013;-60
2022/07/28 07:15:14;;;;;;;1.35;0.50;;;33.50;38.20;;;;;;5048340;28;20037;-60
2022/07/28 07:17:40;;;;;;;2.83;0.57;;;33.50;37.50;;;;;;5046618;28;20616;-59
2022/07/28 07:20:07;;;;;;;2.55;0.70;;;34.80;36.80;;;;;;5048272;28;20036;-57
2022/07/28 07:22:34;;;;;;;2.20;0.70;;;35.50;36.00;;;;;;5047342;28;20528;-56
2022/07/28 07:25:08;;;;;;;2.45;0.65;;;35.10;34.80;;;;;;5048430;28;20103;-58
2022/07/28 07:27:33;;;;;;;2.58;0.63;;;35.60;36.00;;;;;;5030688;28;20500;-59
2022/07/28 07:29:59;;;;;;;1.25;0.80;;;35.80;35.30;;;;;;5048628;28;20043;-57
2022/07/28 07:32:24;;;;;;;1.55;0.63;;;35.50;35.00;;;;;;5048443;28;20040;-57
2022/07/28 07:34:50;;;;;;;1.10;0.63;;;35.20;34.80;;;;;;5047542;28;20025;-57
2022/07/28 07:37:16;;;;;;;1.30;0.60;;;36.10;34.70;;;;;;5048270;28;20120;-57
2022/07/28 07:39:42;;;;;;;1.88;0.60;;;36.60;34.00;;;;;;5048197;28;20052;-58
2022/07/28 07:42:08;;;;;;;4.40;0.80;;;37.60;33.40;;;;;;5048830;28;20515;-57
2022/07/28 07:44:34;;;;;;;2.03;0.50;;;38.50;33.00;;;;;;5048580;28;20032;-58
2022/07/28 07:46:59;;;;;;;1.70;0.60;;;38.80;31.50;;;;;;5047714;28;20029;-58
2022/07/28 07:49:25;;;;;;;2.95;0.52;;;39.40;31.00;;;;;;5048168;28;20021;-58
2022/07/28 07:51:51;;;;;;;0.85;0.60;;;39.50;30.20;;;;;;5047765;28;20021;-57
2022/07/28 07:54:16;;;;;;;2.08;0.90;;;38.40;31.10;;;;;;5049129;28;20021;-58
2022/07/28 07:56:42;;;;;;;3.65;0.70;;;38.00;31.80;;;;;;5047905;28;20762;-58
2022/07/28 07:59:08;;;;;;;2.20;0.68;;;38.50;31.60;;;;;;5047568;28;20540;-57
2022/07/28 08:01:34;;;;;;;2.63;0.60;;;39.10;31.10;;;;;;5046936;28;20033;-59
2022/07/28 08:03:59;;;;;;;1.88;0.60;;;39.50;29.80;;;;;;5047415;28;20032;-57
2022/07/28 08:06:26;;;;;;;2.47;0.90;;;37.60;30.00;;;;;;5047413;28;20037;-57
2022/07/28 08:08:53;;;;;;;1.77;0.60;;;37.50;31.30;;;;;;5045960;28;20055;-57
2022/07/28 08:11:18;;;;;;;3.13;0.70;;;38.00;31.20;;;;;;5047674;28;20043;-57
2022/07/28 08:13:44;;;;;;;1.65;0.60;;;38.30;31.50;;;;;;5048514;28;20056;-58
2022/07/28 08:16:09;;;;;;;2.42;0.50;;;38.80;30.40;;;;;;5045998;28;20033;-58
2022/07/28 08:18:35;;;;;;;3.72;0.90;;;39.00;31.20;;;;;;5048695;28;20040;-58
2022/07/28 08:21:01;;;;;;;2.70;0.70;;;38.80;29.80;;;;;;5046903;28;20029;-58
2022/07/28 08:23:26;;;;;;;1.85;0.60;;;39.40;30.40;;;;;;5048413;28;20029;-57
2022/07/28 08:25:53;;;;;;;1.98;0.60;;;38.60;30.30;;;;;;5046641;28;20052;-57
2022/07/28 08:28:18;;;;;;;2.20;0.60;;;38.60;31.50;;;;;;5046755;28;20424;-58
2022/07/28 08:30:44;;;;;;;2.38;0.57;;;39.30;30.90;;;;;;5048203;28;20040;-57
2022/07/28 08:33:09;;;;;;;6.55;0.75;;;38.80;30.30;;;;;;5047586;28;20547;-57
2022/07/28 08:35:35;;;;;;;5.55;0.70;;;38.90;30.70;;;;;;5047486;28;20060;-58
2022/07/28 08:38:05;;;;;;;1.25;0.50;;;37.80;30.30;;;;;;5047176;28;20436;-58
2022/07/28 08:40:31;;;;;;;1.38;0.60;;;38.20;30.30;;;;;;5047468;28;20028;-57
2022/07/28 08:43:34;;;;;;;1.20;0.60;;;38.00;29.50;;;;;;5047184;28;20040;-57
2022/07/28 08:46:01;;;;;;;1.70;0.65;;;38.50;29.50;;;;;;5025212;28;20037;-57
2022/07/28 08:48:31;;;;;;;2.10;0.70;;;36.80;29.20;;;;;;5049261;28;20036;-58
2022/07/28 08:51:00;;;;;;;;;;;35.30;30.90;;;;;;5051153;28;20079;-57
2022/07/28 08:53:29;;;;;;;4.97;0.90;;;34.70;33.10;;;;;;5051562;28;19951;-57
2022/07/28 08:56:02;;;;;;;1.83;0.77;;;34.60;33.10;;;;;;5050419;28;20072;-57
2022/07/28 08:58:31;;;;;;;1.67;0.80;;;33.90;33.30;;;;;;5051572;28;20064;-59
2022/07/28 09:00:57;;;;;;;1.40;0.70;;;34.40;33.10;;;;;;5050824;28;20078;-56
2022/07/28 09:03:23;;;;;;;2.53;0.85;;;34.20;34.10;;;;;;5052241;28;20574;-57
2022/07/28 09:05:49;;;;;;;2.90;0.90;;;34.90;36.20;;;;;;5050080;28;20037;-57
2022/07/28 09:08:18;;;;;;;2.35;0.95;;;35.80;34.10;;;;;;5048138;28;20056;-57
2022/07/28 09:10:44;;;;;;;1.55;0.77;;;36.00;32.00;;;;;;5051078;28;20448;-59
2022/07/28 09:13:10;;;;;;;3.47;1.08;;;35.00;31.80;;;;;;5050978;28;20080;-57
2022/07/28 09:15:36;;;;;;;1.65;0.70;;;35.60;32.40;;;;;;5051138;28;20503;-57
2022/07/28 09:18:03;;;;;;;2.83;1.00;;;35.50;31.80;;;;;;5050047;28;20041;-58
2022/07/28 09:20:29;;;;;;;2.53;1.00;;;35.30;32.30;;;;;;5050978;28;20139;-58
2022/07/28 09:22:59;;;;;;;2.80;0.90;;;33.60;34.30;;;;;;5050262;28;20028;-56
2022/07/28 09:25:25;;;;;;;5.93;0.90;;;33.50;34.10;;;;;;5050142;28;20641;-57
2022/07/28 09:27:51;;;;;;;3.72;0.90;;;33.60;36.50;;;;;;5050488;28;20078;-57
2022/07/28 09:30:31;;;;;;;3.17;1.05;;;34.40;34.90;;;;;;5053487;28;20029;-57
2022/07/28 09:33:20;;;;;;;1.50;1.00;;;32.40;33.70;;;;;;5050109;28;20025;-57
2022/07/28 09:35:47;;;;;;;4.17;1.20;;;32.00;35.80;;;;;;5049334;28;20037;-56
2022/07/28 09:38:18;;;;;;;3.92;1.10;;;31.50;37.10;;;;;;5041378;28;20437;-56
2022/07/28 09:41:02;;;;;;;2.45;1.20;;;31.20;37.50;;;;;;5050367;28;20544;-56
2022/07/28 09:43:34;;;;;;;3.85;1.10;;;30.20;37.90;;;;;;5050545;28;20492;-56
2022/07/28 09:46:24;;;;;;;2.85;1.00;;;30.20;40.40;;;;;;5050009;28;20033;-57
2022/07/28 09:48:49;;;;;;;2.83;1.30;;;29.50;39.50;;;;;;5050114;28;20029;-58
2022/07/28 09:51:27;;;;;;;4.85;1.20;;;29.80;41.20;;;;;;5049863;28;20435;-58
2022/07/28 09:54:11;;;;;;;5.43;1.13;;;30.40;38.60;;;;;;5049878;28;20025;-56
2022/07/28 09:56:39;;;;;;;4.07;0.98;;;30.60;38.30;;;;;;5049566;28;20044;-57
2022/07/28 09:59:06;;;;;;;2.92;0.85;;;30.70;38.40;;;;;;5048356;28;20053;-57
2022/07/28 10:01:48;;;;;;;2.72;1.20;;;31.40;39.00;;;;;;5049400;28;20084;-57
2022/07/28 10:04:14;;;;;;;1.50;1.00;;;32.50;38.30;;;;;;5050126;28;20619;-57
2022/07/28 10:06:39;;;;;;;2.28;0.85;;;33.80;36.60;;;;;;5049787;28;20112;-57
2022/07/28 10:09:06;;;;;;;1.52;1.02;;;34.80;35.10;;;;;;5050346;28;20140;-57
2022/07/28 10:11:32;;;;;;;4.40;1.30;;;35.40;34.60;;;;;;5044073;28;20056;-55
2022/07/28 10:14:04;;;;;;;2.45;1.10;;;35.80;33.30;;;;;;5049353;28;20028;-56
2022/07/28 10:16:32;;;;;;;1.70;1.00;;;35.60;32.10;;;;;;5046773;28;20055;-57
2022/07/28 10:19:00;;;;;;;5.70;1.10;;;35.00;33.00;;;;;;5049314;28;20489;-58
2022/07/28 10:21:27;;;;;;;2.58;1.10;;;34.20;35.20;;;;;;5049463;28;20511;-56
2022/07/28 10:23:55;;;;;;;1.48;0.95;;;34.50;35.10;;;;;;5048836;28;20018;-57
2022/07/28 10:26:31;;;;;;;3.00;1.00;;;34.50;32.70;;;;;;5049255;28;20045;-56
2022/07/28 10:28:58;;;;;;;1.73;1.10;;;34.70;34.50;;;;;;5048731;28;20456;-56
2022/07/28 10:31:49;;;;;;;2.35;0.95;;;34.50;34.30;;;;;;5049196;28;20044;-57
2022/07/28 10:34:26;;;;;;;3.97;1.00;;;34.60;33.00;;;;;;5048117;28;20389;-56
2022/07/28 10:36:54;;;;;;;2.10;1.13;;;34.50;34.80;;;;;;5029325;28;20024;-57
2022/07/28 10:39:24;;;;;;;3.88;1.15;;;35.30;34.50;;;;;;5048930;28;20028;-57
2022/07/28 10:41:50;;;;;;;3.65;1.25;;;35.70;33.50;;;;;;5048754;28;20044;-56
2022/07/28 10:44:18;;;;;;;2.67;0.90;;;35.40;33.80;;;;;;5049101;28;20548;-58
2022/07/28 10:46:45;;;;;;;1.50;0.80;;;35.50;34.10;;;;;;5048317;28;20254;-56
2022/07/28 10:49:12;;;;;;;2.97;1.10;;;35.40;33.70;;;;;;5049060;28;20420;-57
2022/07/28 10:51:42;;;;;;;2.35;0.93;;;35.40;34.60;;;;;;5049280;28;20025;-57
2022/07/28 10:54:16;;;;;;;3.63;0.95;;;35.40;33.80;;;;;;5049198;28;20045;-57
2022/07/28 10:57:00;;;;;;;2.45;1.02;;;35.20;34.80;;;;;;5047073;28;20119;-58
2022/07/28 10:59:43;;;;;;;2.03;1.00;;;35.20;33.50;;;;;;5048532;28;20040;-57
2022/07/28 11:02:44;;;;;;;2.85;0.85;;;35.00;34.50;;;;;;5048658;28;20107;-57
2022/07/28 11:05:29;;;;;;;3.92;0.80;;;34.80;34.00;;;;;;5048268;28;20029;-57
2022/07/28 11:07:57;;;;;;;1.73;0.95;;;34.80;35.10;;;;;;5046034;28;20432;-57
2022/07/28 11:10:23;;;;;;;2.50;1.20;;;34.70;33.70;;;;;;5048345;28;20489;-56
2022/07/28 11:12:53;;;;;;;1.42;0.80;;;34.70;34.50;;;;;;5048957;28;20025;-56
2022/07/28 11:15:30;;;;;;;3.00;1.15;;;33.90;34.20;;;;;;5048286;28;20427;-57
2022/07/28 11:18:07;;;;;;;2.90;0.95;;;31.60;35.90;;;;;;5048300;28;20035;-57
2022/07/28 11:20:51;;;;;;;2.03;1.08;;;31.20;39.20;;;;;;5046806;28;20048;-56
2022/07/28 11:23:35;;;;;;;3.00;1.10;;;31.10;37.90;;;;;;5048094;28;20033;-56
2022/07/28 11:26:22;;;;;;;1.38;1.00;;;31.80;39.40;;;;;;5047004;28;20036;-57
2022/07/28 11:29:02;;;;;;;1.50;1.02;;;32.10;38.30;;;;;;5048169;28;20067;-56
2022/07/28 11:31:43;;;;;;;1.88;1.02;;;32.20;36.20;;;;;;5046227;28;21200;-57
2022/07/28 11:34:09;;;;;;;2.08;1.00;;;32.60;37.00;;;;;;5046679;28;20041;-57
2022/07/28 11:36:57;;;;;;;3.42;1.27;;;33.00;37.50;;;;;;5047058;28;20025;-58
2022/07/28 11:39:24;;;;;;;3.30;1.13;;;33.20;35.50;;;;;;5023653;28;20041;-56
2022/07/28 11:41:50;;;;;;;2.00;1.08;;;33.20;36.50;;;;;;5048284;28;20021;-56
2022/07/28 11:44:25;;;;;;;3.05;0.95;;;32.60;36.30;;;;;;5047639;28;20056;-58
2022/07/28 11:46:51;;;;;;;3.95;1.30;;;32.60;37.80;;;;;;5046537;28;20121;-56
2022/07/28 11:49:22;;;;;;;2.72;1.17;;;31.80;36.60;;;;;;5044931;28;20048;-56
2022/07/28 11:52:09;;;;;;;2.72;1.10;;;31.40;37.10;;;;;;5043869;28;20025;-57
2022/07/28 11:54:37;;;;;;;2.22;1.20;;;29.60;39.50;;;;;;5044343;28;20020;-56
2022/07/28 11:57:03;;;;;;;1.70;1.20;;;29.30;40.30;;;;;;5043935;28;20065;-56
2022/07/28 11:59:52;;;;;;;4.93;1.10;;;29.50;42.60;;;;;;5047386;28;20142;-58
2022/07/28 12:02:23;;;;;;;1.55;1.05;;;30.00;40.50;;;;;;5046914;28;20033;-56
2022/07/28 12:05:04;;;;;;;2.08;1.00;;;30.70;39.20;;;;;;5047550;28;20036;-57
2022/07/28 12:07:35;;;;;;;4.03;1.50;;;31.30;38.40;;;;;;5043737;28;20033;-57
2022/07/28 12:10:20;;;;;;;1.45;0.70;;;31.80;39.20;;;;;;5047662;28;20029;-58
2022/07/28 12:12:53;;;;;;;2.25;1.00;;;32.20;38.90;;;;;;5048545;28;20096;-55
2022/07/28 12:15:20;;;;;;;2.95;1.05;;;32.50;38.20;;;;;;5048663;28;20029;-56
2022/07/28 12:17:46;;;;;;;4.53;1.40;;;32.70;38.00;;;;;;5047513;28;20052;-55
2022/07/28 12:20:15;;;;;;;2.38;1.20;;;32.80;37.50;;;;;;5047434;28;20033;-56
2022/07/28 12:23:03;;;;;;;1.08;0.93;;;32.80;37.70;;;;;;5045545;28;20135;-57
2022/07/28 12:25:29;;;;;;;2.63;1.20;;;32.90;36.70;;;;;;5049955;28;20492;-56
2022/07/28 12:27:55;;;;;;;2.00;0.98;;;32.80;37.70;;;;;;5051727;28;20095;-58
2022/07/28 12:30:23;;;;;;;2.85;1.00;;;32.00;36.50;;;;;;5050891;28;20017;-57
2022/07/28 12:32:49;;;;;;;3.30;1.20;;;31.50;38.00;;;;;;5051535;28;20555;-56
2022/07/28 12:35:16;;;;;;;5.07;1.25;;;31.00;38.70;;;;;;5052058;28;20025;-58
2022/07/28 12:37:46;;;;;;;3.60;1.02;;;31.30;38.20;;;;;;5050770;28;20512;-56
2022/07/28 12:40:16;;;;;;;1.02;0.90;;;31.60;40.30;;;;;;5029898;28;20041;-57
2022/07/28 12:42:42;;;;;;;5.77;1.53;;;32.10;38.60;;;;;;5047072;28;20075;-56
2022/07/28 12:45:09;;;;;;;2.80;1.33;;;31.70;37.00;;;;;;5049262;28;20311;-56
2022/07/28 12:47:37;;;;;;;3.90;1.30;;;31.60;39.30;;;;;;5049884;28;20522;-57
2022/07/28 12:50:19;;;;;;;2.80;1.20;;;31.20;40.30;;;;;;5048107;28;20395;-58
2022/07/28 12:53:02;;;;;;;2.42;1.25;;;31.60;40.00;;;;;;5049442;28;20029;-57
2022/07/28 12:55:31;;;;;;;1.77;1.00;;;31.70;37.50;;;;;;5046204;28;20104;-56
2022/07/28 12:57:58;;;;;;;1.83;1.13;;;31.80;38.40;;;;;;5049644;28;20029;-56
2022/07/28 13:00:33;;;;;;;2.80;1.13;;;31.90;38.90;;;;;;5048107;28;20021;-58
2022/07/28 13:03:18;;;;;;;2.50;1.23;;;32.10;39.40;;;;;;5049991;28;20029;-56